Time;durP1;ratioP1;P1;durP2;ratioP2;P2;SDS_P1;SDS_P2;PMS_P1;PMS_P2;Temp;Humidity;BMP_temperature;BMP_pressure;BME280_temperature;BME280_humidity;BME280_pressure;Samples;Min_cycle;Max_cycle;Signal;HPM_P1;HPM_P2
2022/05/13 00:02:22;;;;;;;15.32;2.53;;;12.70;99.90;;;;;;5074095;28;20020;-79
2022/05/13 00:04:47;;;;;;;14.82;2.70;;;12.40;99.90;;;;;;5093562;28;20024;-80
2022/05/13 00:07:13;;;;;;;12.23;2.42;;;12.60;99.90;;;;;;5094113;28;20495;-78
2022/05/13 00:10:00;;;;;;;16.08;2.97;;;12.60;99.90;;;;;;5094181;28;20081;-80
2022/05/13 00:12:31;;;;;;;18.63;2.50;;;12.70;99.90;;;;;;5092652;28;20028;-80
2022/05/13 00:14:58;;;;;;;14.57;1.98;;;12.70;99.90;;;;;;5093867;28;20028;-79
2022/05/13 00:17:24;;;;;;;18.73;3.05;;;12.80;99.90;;;;;;5094018;28;20024;-80
2022/05/13 00:19:50;;;;;;;15.55;2.60;;;12.90;99.90;;;;;;5093821;28;20039;-79
2022/05/13 00:22:19;;;;;;;14.15;2.72;;;12.50;99.90;;;;;;5093904;28;20107;-80
2022/05/13 00:24:45;;;;;;;11.38;2.40;;;12.60;99.90;;;;;;5093691;28;20469;-79
2022/05/13 00:27:11;;;;;;;13.82;2.33;;;12.50;99.90;;;;;;5092321;28;20039;-80
2022/05/13 00:29:37;;;;;;;20.73;3.78;;;12.40;99.90;;;;;;5093834;28;20077;-79
2022/05/13 00:32:03;;;;;;;11.00;2.08;;;12.00;99.90;;;;;;5093767;28;20024;-80
2022/05/13 00:34:31;;;;;;;13.20;2.47;;;12.10;99.90;;;;;;5093734;28;20023;-79
2022/05/13 00:36:56;;;;;;;15.98;2.80;;;12.00;99.90;;;;;;5093802;28;20024;-80
2022/05/13 00:39:22;;;;;;;15.02;2.85;;;12.10;99.90;;;;;;5093551;28;20115;-80
2022/05/13 00:41:48;;;;;;;16.75;2.58;;;12.00;99.90;;;;;;5093218;28;20020;-80
2022/05/13 00:44:14;;;;;;;10.95;2.90;;;12.20;99.90;;;;;;5093490;28;20043;-80
2022/05/13 00:46:40;;;;;;;16.02;3.83;;;12.20;99.90;;;;;;5087670;28;20009;-80
2022/05/13 00:49:09;;;;;;;16.13;3.05;;;12.30;99.90;;;;;;5073208;28;20040;-79
2022/05/13 00:51:39;;;;;;;15.00;2.38;;;12.20;99.90;;;;;;5073271;28;20056;-80
2022/05/13 00:54:08;;;;;;;15.23;3.28;;;12.30;99.90;;;;;;5072687;28;20484;-82
2022/05/13 00:56:35;;;;;;;16.67;2.92;;;12.40;99.90;;;;;;5072793;28;20473;-81
2022/05/13 00:59:04;;;;;;;16.02;3.58;;;12.50;99.90;;;;;;5071798;28;20025;-81
2022/05/13 01:01:30;;;;;;;9.25;2.60;;;12.50;99.90;;;;;;5073031;28;20029;-82
2022/05/13 01:04:07;;;;;;;11.75;2.45;;;12.60;99.90;;;;;;5084455;28;20028;-80
2022/05/13 01:06:34;;;;;;;24.25;3.20;;;12.80;99.90;;;;;;5093021;28;20024;-81
2022/05/13 01:09:00;;;;;;;12.10;2.40;;;12.50;99.90;;;;;;5093227;28;20392;-82
2022/05/13 01:11:29;;;;;;;19.98;2.90;;;12.70;99.90;;;;;;5092695;28;20028;-81
2022/05/13 01:14:04;;;;;;;12.35;3.22;;;12.60;99.90;;;;;;5093170;28;20028;-81
2022/05/13 01:18:04;;;;;;;17.63;2.95;;;12.40;99.90;;;;;;5093057;28;20058;-81
2022/05/13 01:19:16;;;;;;;14.43;3.15;;;12.60;99.90;;;;;;5093148;28;20047;-81
2022/05/13 01:21:42;;;;;;;15.38;4.10;;;12.60;99.90;;;;;;5092976;28;20426;-79
2022/05/13 01:24:08;;;;;;;15.82;3.67;;;12.40;99.90;;;;;;5092638;28;20040;-80
2022/05/13 01:26:35;;;;;;;20.00;4.10;;;12.40;99.90;;;;;;5092903;28;20021;-81
2022/05/13 01:29:02;;;;;;;23.48;3.78;;;12.30;99.90;;;;;;5085339;28;20427;-81
2022/05/13 01:31:35;;;;;;;16.10;3.85;;;12.40;99.90;;;;;;5072975;28;20066;-81
2022/05/13 01:34:12;;;;;;;21.92;4.40;;;12.40;99.90;;;;;;5071289;28;20036;-80
2022/05/13 01:36:40;;;;;;;17.27;4.22;;;12.60;99.90;;;;;;5072620;28;20027;-81
2022/05/13 01:39:06;;;;;;;11.55;3.67;;;12.50;99.90;;;;;;5072464;28;20082;-81
2022/05/13 01:41:32;;;;;;;15.07;4.15;;;12.40;99.90;;;;;;5072624;28;20021;-80
2022/05/13 01:43:58;;;;;;;21.00;4.43;;;12.50;99.90;;;;;;5071341;28;20025;-81
2022/05/13 01:46:26;;;;;;;19.50;5.13;;;12.40;99.90;;;;;;5073108;28;20487;-80
2022/05/13 01:48:52;;;;;;;24.92;4.10;;;12.40;99.90;;;;;;5092650;28;20036;-80
2022/05/13 01:51:19;;;;;;;19.42;4.72;;;12.40;99.90;;;;;;5092794;28;20077;-81
2022/05/13 01:53:45;;;;;;;20.27;3.90;;;12.60;99.90;;;;;;5074554;28;20028;-79
2022/05/13 01:56:11;;;;;;;21.50;4.00;;;12.70;99.90;;;;;;5092650;28;20483;-81
2022/05/13 01:58:37;;;;;;;19.77;5.20;;;12.20;99.90;;;;;;5092760;28;20032;-80
2022/05/13 02:01:05;;;;;;;21.67;4.30;;;12.20;99.90;;;;;;5092597;28;20032;-81
2022/05/13 02:03:44;;;;;;;23.30;4.03;;;12.10;99.90;;;;;;5091390;28;20028;-82
2022/05/13 02:06:14;;;;;;;22.55;4.60;;;12.00;99.90;;;;;;5094350;28;20024;-81
2022/05/13 02:08:39;;;;;;;19.08;4.47;;;12.20;99.90;;;;;;5096358;28;20119;-81
2022/05/13 02:11:06;;;;;;;23.38;4.88;;;12.20;99.90;;;;;;5096303;28;20115;-81
2022/05/13 02:13:32;;;;;;;26.40;6.18;;;12.40;99.90;;;;;;5095178;28;20055;-81
2022/05/13 02:15:59;;;;;;;27.10;5.10;;;12.00;99.90;;;;;;5095119;28;20072;-81
2022/05/13 02:18:25;;;;;;;21.75;4.53;;;12.20;99.90;;;;;;5096313;28;20035;-81
2022/05/13 02:20:51;;;;;;;14.40;4.28;;;12.30;99.90;;;;;;5095033;28;20054;-80
2022/05/13 02:23:21;;;;;;;18.48;4.85;;;12.00;99.90;;;;;;5095837;28;20020;-81
2022/05/13 02:25:51;;;;;;;17.30;3.92;;;11.90;99.90;;;;;;5094807;28;20038;-80
2022/05/13 02:28:17;;;;;;;18.13;4.93;;;11.90;99.90;;;;;;5096147;28;20036;-81
2022/05/13 02:30:43;;;;;;;21.45;4.47;;;11.90;99.90;;;;;;5096120;28;20028;-80
2022/05/13 02:33:09;;;;;;;19.30;4.88;;;11.80;99.90;;;;;;5095941;28;20149;-80
2022/05/13 02:35:35;;;;;;;22.88;4.93;;;11.80;99.90;;;;;;5096344;28;20031;-79
2022/05/13 02:38:01;;;;;;;21.33;4.40;;;11.60;99.90;;;;;;5095624;28;20035;-80
2022/05/13 02:43:14;;;;;;;21.58;4.55;;;11.70;99.90;;;;;;5095664;28;20102;-80
2022/05/13 02:45:40;;;;;;;27.17;5.63;;;11.80;99.90;;;;;;5095864;28;20020;-80
2022/05/13 02:48:06;;;;;;;20.38;3.88;;;11.90;99.90;;;;;;5077692;28;20545;-80
2022/05/13 02:50:32;;;;;;;24.52;4.72;;;11.80;99.90;;;;;;5075508;28;20107;-80
2022/05/13 02:52:59;;;;;;;20.20;4.50;;;11.80;99.90;;;;;;5057103;28;20036;-80
2022/05/13 02:55:25;;;;;;;25.70;4.90;;;12.00;99.90;;;;;;5075394;28;20024;-81
2022/05/13 02:57:51;;;;;;;14.85;4.22;;;12.00;99.90;;;;;;5075106;28;20096;-80
2022/05/13 03:00:17;;;;;;;20.77;4.10;;;11.70;99.90;;;;;;5075272;28;20033;-81
2022/05/13 03:02:46;;;;;;;19.63;4.30;;;11.70;99.90;;;;;;5077539;28;20029;-81
2022/05/13 03:05:12;;;;;;;20.40;4.05;;;11.60;99.90;;;;;;5094102;28;20024;-80
2022/05/13 03:07:38;;;;;;;22.05;3.75;;;11.80;99.90;;;;;;5094959;28;20101;-81
2022/05/13 03:10:05;;;;;;;13.68;3.45;;;11.90;99.90;;;;;;5095390;28;20435;-82
2022/05/13 03:12:31;;;;;;;16.25;3.90;;;11.70;99.90;;;;;;5095178;28;20036;-79
2022/05/13 03:14:57;;;;;;;22.27;4.05;;;11.60;99.90;;;;;;5094029;28;20468;-79
2022/05/13 03:17:23;;;;;;;15.68;3.78;;;11.70;99.90;;;;;;5093414;28;20024;-79
2022/05/13 03:19:49;;;;;;;18.90;4.13;;;11.70;99.90;;;;;;5095220;28;20490;-80
2022/05/13 03:22:14;;;;;;;18.75;4.10;;;11.50;99.90;;;;;;5094889;28;20039;-80
2022/05/13 03:24:40;;;;;;;22.30;4.55;;;11.60;99.90;;;;;;5094859;28;20381;-81
2022/05/13 03:27:07;;;;;;;14.63;3.67;;;11.50;99.90;;;;;;5094853;28;20031;-81
2022/05/13 03:29:33;;;;;;;18.70;4.20;;;11.60;99.90;;;;;;5093804;28;20070;-81
2022/05/13 03:31:59;;;;;;;18.17;3.70;;;11.60;99.90;;;;;;5094938;28;20027;-81
2022/05/13 03:34:26;;;;;;;13.43;3.85;;;11.60;99.90;;;;;;5094850;28;20031;-81
2022/05/13 03:36:52;;;;;;;19.00;3.85;;;11.60;99.90;;;;;;5094680;28;20061;-81
2022/05/13 03:39:18;;;;;;;22.98;3.53;;;11.60;99.90;;;;;;5094599;28;20024;-81
2022/05/13 03:41:43;;;;;;;16.55;3.47;;;11.60;99.90;;;;;;5093532;28;20059;-82
2022/05/13 03:44:09;;;;;;;13.13;3.30;;;11.40;99.90;;;;;;5094507;28;20024;-81
2022/05/13 03:46:35;;;;;;;27.55;6.47;;;11.40;99.90;;;;;;5090900;28;20016;-81
2022/05/13 03:49:02;;;;;;;20.45;3.40;;;11.40;99.90;;;;;;5073946;28;20024;-81
2022/05/13 03:51:28;;;;;;;17.20;3.83;;;11.20;99.90;;;;;;5074402;28;20100;-80
2022/05/13 03:53:55;;;;;;;19.00;4.30;;;11.20;99.90;;;;;;5074153;28;20089;-81
2022/05/13 03:56:20;;;;;;;21.08;4.15;;;11.20;99.90;;;;;;5056361;28;20052;-80
2022/05/13 03:58:46;;;;;;;22.45;4.28;;;11.30;99.90;;;;;;5073970;28;20063;-81
2022/05/13 04:01:12;;;;;;;10.70;3.00;;;11.50;99.90;;;;;;5074051;28;20020;-81
2022/05/13 04:03:38;;;;;;;22.10;4.80;;;11.50;99.90;;;;;;5083735;28;20093;-80
2022/05/13 04:08:57;;;;;;;16.23;3.30;;;11.70;99.90;;;;;;5093889;28;20047;-80
2022/05/13 04:11:24;;;;;;;13.35;3.72;;;11.50;99.90;;;;;;5093731;28;20031;-80
2022/05/13 04:16:34;;;;;;;20.60;3.65;;;11.40;99.90;;;;;;5094254;28;20024;-81
2022/05/13 04:18:59;;;;;;;19.63;4.28;;;11.30;99.90;;;;;;5094103;28;20034;-80
2022/05/13 04:21:31;;;;;;;16.55;4.82;;;11.40;99.90;;;;;;5094813;28;20048;-81
2022/05/13 04:24:00;;;;;;;18.67;4.22;;;11.50;99.90;;;;;;5094255;28;20035;-81
2022/05/13 04:26:26;;;;;;;18.63;3.95;;;11.40;99.90;;;;;;5093792;28;20081;-81
2022/05/13 04:28:53;;;;;;;21.17;4.03;;;11.40;99.90;;;;;;5094262;28;20407;-80
2022/05/13 04:31:24;;;;;;;18.70;4.75;;;11.40;99.90;;;;;;5096061;28;20428;-81
2022/05/13 04:33:50;;;;;;;26.85;5.93;;;11.30;99.90;;;;;;5094381;28;20111;-81
2022/05/13 04:36:17;;;;;;;19.45;4.30;;;11.40;99.90;;;;;;5093821;28;20024;-80
2022/05/13 04:38:44;;;;;;;15.48;4.22;;;11.60;99.90;;;;;;5092551;28;20028;-81
2022/05/13 04:43:57;;;;;;;17.88;3.95;;;11.60;99.90;;;;;;5093622;28;20024;-81
2022/05/13 04:46:23;;;;;;;24.75;5.45;;;11.70;99.90;;;;;;5090341;28;20020;-81
2022/05/13 04:48:50;;;;;;;19.92;5.50;;;11.90;99.90;;;;;;5071654;28;20476;-81
2022/05/13 04:51:19;;;;;;;26.35;5.18;;;12.00;99.90;;;;;;5073215;28;20097;-81
2022/05/13 04:53:50;;;;;;;16.02;4.25;;;11.80;99.90;;;;;;5073196;28;20071;-81
2022/05/13 04:56:16;;;;;;;18.58;4.90;;;11.90;99.90;;;;;;5073014;28;20032;-81
2022/05/13 04:58:42;;;;;;;20.38;4.65;;;11.80;99.90;;;;;;5071859;28;20039;-80
2022/05/13 05:01:10;;;;;;;26.38;4.57;;;11.80;99.90;;;;;;5073093;28;20540;-80
2022/05/13 05:03:37;;;;;;;26.45;5.60;;;11.90;99.90;;;;;;5082698;28;20085;-80
2022/05/13 05:06:04;;;;;;;19.83;5.20;;;12.20;99.90;;;;;;5092985;28;20036;-78
2022/05/13 05:08:30;;;;;;;32.28;6.10;;;12.10;99.90;;;;;;5093115;28;20124;-79
2022/05/13 05:10:57;;;;;;;17.88;4.53;;;12.20;99.90;;;;;;5093143;28;20077;-80
2022/05/13 05:13:28;;;;;;;21.63;5.07;;;12.20;99.90;;;;;;5093056;28;20024;-80
2022/05/13 05:15:55;;;;;;;21.38;4.97;;;12.10;99.90;;;;;;5093174;28;20472;-80
2022/05/13 05:18:22;;;;;;;21.98;5.55;;;12.30;99.90;;;;;;5093117;28;20030;-80
2022/05/13 05:20:48;;;;;;;24.67;5.45;;;12.30;99.90;;;;;;5093080;28;20028;-80
2022/05/13 05:23:22;;;;;;;22.00;4.75;;;12.30;99.90;;;;;;5093029;28;20020;-80
2022/05/13 05:25:48;;;;;;;25.17;5.63;;;12.50;99.90;;;;;;5092892;28;20050;-80
2022/05/13 05:28:14;;;;;;;22.33;5.18;;;12.60;99.90;;;;;;5092890;28;20047;-81
2022/05/13 05:30:41;;;;;;;28.67;4.95;;;12.70;99.90;;;;;;5092478;28;20016;-80
2022/05/13 05:33:08;;;;;;;17.73;5.88;;;12.50;99.90;;;;;;5092912;28;20240;-81
2022/05/13 05:35:34;;;;;;;20.35;5.40;;;12.50;99.90;;;;;;5093042;28;20069;-81
2022/05/13 05:38:00;;;;;;;23.80;5.90;;;12.40;99.90;;;;;;5092794;28;20043;-81
2022/05/13 05:40:26;;;;;;;28.50;5.43;;;12.40;99.90;;;;;;5095111;28;20123;-82
2022/05/13 05:42:52;;;;;;;25.38;5.15;;;12.40;99.90;;;;;;5097001;28;20024;-82
2022/05/13 05:45:21;;;;;;;26.25;5.30;;;12.50;99.90;;;;;;5096921;28;20026;-78
2022/05/13 05:47:47;;;;;;;26.98;6.35;;;12.40;99.90;;;;;;5082790;28;20032;-78
2022/05/13 05:50:16;;;;;;;28.15;6.60;;;12.50;99.90;;;;;;5076446;28;20024;-78
2022/05/13 05:52:42;;;;;;;25.58;6.60;;;12.50;99.90;;;;;;5075034;28;20052;-78
2022/05/13 05:58:13;;;;;;;26.88;6.00;;;12.50;99.90;;;;;;5082080;28;20066;-78
2022/05/13 06:00:46;;;;;;;26.17;7.60;;;12.80;99.90;;;;;;5096705;28;20032;-78
2022/05/13 06:03:12;;;;;;;26.50;7.00;;;12.70;99.90;;;;;;5091503;28;20102;-78
2022/05/13 06:05:38;;;;;;;23.27;6.88;;;12.70;99.90;;;;;;5105531;28;20460;-78
2022/05/13 06:08:05;;;;;;;28.90;8.80;;;12.80;99.90;;;;;;5100803;28;20134;-78
2022/05/13 06:10:32;;;;;;;27.67;7.70;;;12.90;99.90;;;;;;5112614;28;20019;-78
2022/05/13 06:12:58;;;;;;;22.45;7.68;;;13.00;99.90;;;;;;5100339;28;20027;-78
2022/05/13 06:15:24;;;;;;;21.60;7.80;;;13.10;99.90;;;;;;5107629;28;20046;-79
2022/05/13 06:17:55;;;;;;;29.90;8.25;;;12.90;99.90;;;;;;5107535;28;20467;-79
2022/05/13 06:20:24;;;;;;;28.67;8.77;;;12.90;99.90;;;;;;5098082;28;20119;-79
2022/05/13 06:22:50;;;;;;;40.30;9.68;;;13.10;99.90;;;;;;5082336;28;20496;-79
2022/05/13 06:25:19;;;;;;;36.25;9.30;;;13.10;99.90;;;;;;5108668;28;20024;-79
2022/05/13 06:27:47;;;;;;;29.20;9.93;;;13.10;99.90;;;;;;5099173;28;20090;-79
2022/05/13 06:30:18;;;;;;;32.28;8.90;;;13.10;99.90;;;;;;5110312;28;20111;-79
2022/05/13 06:32:45;;;;;;;32.35;10.00;;;13.00;99.90;;;;;;5098758;28;20063;-79
2022/05/13 06:35:11;;;;;;;28.35;8.70;;;13.10;99.90;;;;;;5109379;28;20031;-80
2022/05/13 06:37:37;;;;;;;34.15;9.98;;;13.10;99.90;;;;;;5105458;28;20023;-81
2022/05/13 06:40:05;;;;;;;34.30;9.80;;;13.40;99.90;;;;;;5100812;28;20068;-79
2022/05/13 06:42:31;;;;;;;34.90;10.32;;;13.50;99.90;;;;;;5111798;28;20023;-75
2022/05/13 06:44:59;;;;;;;27.10;8.13;;;13.20;99.90;;;;;;5098373;28;20426;-77
2022/05/13 06:47:25;;;;;;;36.30;10.20;;;13.10;99.90;;;;;;5113015;28;20059;-75
2022/05/13 06:49:51;;;;;;;29.33;8.70;;;13.10;99.90;;;;;;5103259;28;20462;-75
2022/05/13 06:52:16;;;;;;;21.42;7.32;;;13.30;99.90;;;;;;5093154;28;20380;-75
2022/05/13 06:54:43;;;;;;;29.27;8.10;;;13.30;99.90;;;;;;5093951;28;20487;-75
2022/05/13 06:57:10;;;;;;;26.25;8.80;;;13.50;99.90;;;;;;5094527;28;20114;-74
2022/05/13 06:59:36;;;;;;;22.65;8.00;;;13.30;99.90;;;;;;5093758;28;20503;-76
2022/05/13 07:02:03;;;;;;;22.00;8.68;;;13.50;99.90;;;;;;5094297;28;20028;-78
2022/05/13 07:04:29;;;;;;;25.98;8.13;;;13.60;99.90;;;;;;5093914;28;20031;-75
2022/05/13 07:06:54;;;;;;;30.98;7.90;;;13.60;99.90;;;;;;5076636;28;20032;-75
2022/05/13 07:09:20;;;;;;;30.13;9.85;;;13.50;99.90;;;;;;5090514;28;20087;-75
2022/05/13 07:11:46;;;;;;;30.65;9.07;;;13.60;99.90;;;;;;5080521;28;20469;-76
2022/05/13 07:14:12;;;;;;;36.08;9.25;;;13.50;99.90;;;;;;5112169;28;20024;-77
2022/05/13 07:16:38;;;;;;;27.20;7.07;;;13.70;99.90;;;;;;5114055;28;20016;-75
2022/05/13 07:19:05;;;;;;;20.83;6.80;;;13.70;99.90;;;;;;5101966;28;20284;-75
2022/05/13 07:21:30;;;;;;;27.25;7.50;;;14.10;99.90;;;;;;5102138;28;20030;-75
2022/05/13 07:23:56;;;;;;;28.65;6.75;;;13.90;99.90;;;;;;5096732;28;20020;-76
2022/05/13 07:26:22;;;;;;;27.70;7.55;;;14.20;99.90;;;;;;5110925;28;20538;-74
2022/05/13 07:28:48;;;;;;;26.58;7.22;;;14.50;99.90;;;;;;5101865;28;20411;-76
2022/05/13 07:31:14;;;;;;;27.10;6.38;;;14.50;99.90;;;;;;5099050;28;20336;-75
2022/05/13 07:33:39;;;;;;;22.27;7.03;;;14.60;99.90;;;;;;5090008;28;20038;-76
2022/05/13 07:36:05;;;;;;;26.92;6.22;;;14.40;99.90;;;;;;5100827;28;20032;-76
2022/05/13 07:38:32;;;;;;;26.70;6.65;;;14.60;99.90;;;;;;5103508;28;20028;-76
2022/05/13 07:41:17;;;;;;;25.60;6.65;;;14.80;99.90;;;;;;5105158;28;20388;-77
2022/05/13 07:43:46;;;;;;;27.60;7.25;;;14.80;99.90;;;;;;5109773;28;20115;-77
2022/05/13 07:46:13;;;;;;;24.88;6.40;;;14.90;99.90;;;;;;5096173;28;20135;-77
2022/05/13 07:48:40;;;;;;;21.83;5.32;;;14.90;99.90;;;;;;5100562;28;20100;-77
2022/05/13 07:51:07;;;;;;;18.50;5.65;;;14.90;99.90;;;;;;5110058;28;20027;-76
2022/05/13 07:53:33;;;;;;;17.25;5.85;;;14.80;99.90;;;;;;5098698;28;20085;-76
2022/05/13 07:55:59;;;;;;;19.42;5.97;;;14.80;99.90;;;;;;5092464;28;20017;-76
2022/05/13 07:58:25;;;;;;;19.15;5.93;;;15.00;99.90;;;;;;5097627;28;20032;-75
2022/05/13 08:00:51;;;;;;;24.08;5.65;;;14.90;99.90;;;;;;5106059;28;20031;-77
2022/05/13 08:03:17;;;;;;;24.10;5.97;;;15.50;99.90;;;;;;5082937;28;20028;-76
2022/05/13 08:05:47;;;;;;;21.92;6.40;;;15.30;99.90;;;;;;5077341;28;20021;-76
2022/05/13 08:08:17;;;;;;;18.83;4.82;;;15.40;99.90;;;;;;5088602;28;20040;-76
2022/05/13 08:10:47;;;;;;;15.50;5.07;;;15.20;99.90;;;;;;5087537;28;20088;-77
2022/05/13 08:13:13;;;;;;;15.32;4.82;;;15.40;99.90;;;;;;5095172;28;20032;-77
2022/05/13 08:15:40;;;;;;;18.42;4.82;;;15.50;99.90;;;;;;5103249;28;20387;-76
2022/05/13 08:18:06;;;;;;;21.67;4.90;;;15.70;99.90;;;;;;5097132;28;20032;-77
2022/05/13 08:20:32;;;;;;;18.05;4.28;;;16.00;99.90;;;;;;5108197;28;20032;-78
2022/05/13 08:22:59;;;;;;;17.17;4.78;;;16.20;99.90;;;;;;5094677;28;20023;-76
2022/05/13 08:25:25;;;;;;;14.50;4.38;;;16.00;99.90;;;;;;5100586;28;20460;-76
2022/05/13 08:27:51;;;;;;;12.27;4.13;;;16.20;99.90;;;;;;5077421;28;20102;-76
2022/05/13 08:30:20;;;;;;;14.30;4.55;;;16.10;99.90;;;;;;5075309;28;20020;-75
2022/05/13 08:32:46;;;;;;;14.27;4.55;;;16.40;99.90;;;;;;5073596;28;20032;-77
2022/05/13 08:35:13;;;;;;;16.38;4.55;;;16.10;99.90;;;;;;5073764;28;20107;-76
2022/05/13 08:37:44;;;;;;;12.52;4.20;;;16.50;99.90;;;;;;5094934;28;20422;-75
2022/05/13 08:40:32;;;;;;;20.85;4.88;;;16.50;99.90;;;;;;5078323;28;20029;-79
2022/05/13 08:43:03;;;;;;;17.33;3.85;;;16.70;99.90;;;;;;5102823;28;20027;-76
2022/05/13 08:45:31;;;;;;;13.40;3.90;;;16.70;99.90;;;;;;5099854;28;20030;-76
2022/05/13 08:47:58;;;;;;;18.35;4.72;;;16.70;99.90;;;;;;5095985;28;20032;-75
2022/05/13 08:50:39;;;;;;;11.00;4.72;;;17.00;99.90;;;;;;5107747;28;20028;-75
2022/05/13 08:53:16;;;;;;;14.68;4.75;;;17.10;99.90;;;;;;5103637;28;20032;-76
2022/05/13 08:55:46;;;;;;;13.88;4.18;;;17.30;99.90;;;;;;5097912;28;20032;-82
2022/05/13 08:58:23;;;;;;;15.07;5.07;;;17.20;99.90;;;;;;5109774;28;20027;-75
2022/05/13 09:00:53;;;;;;;13.85;4.30;;;17.40;99.90;;;;;;5099577;28;20484;-75
2022/05/13 09:03:34;;;;;;;22.00;4.97;;;17.20;99.90;;;;;;5101185;28;20095;-73
2022/05/13 09:06:02;;;;;;;16.77;5.25;;;17.10;99.90;;;;;;5109395;28;20023;-72
2022/05/13 09:08:29;;;;;;;11.75;3.90;;;17.40;99.90;;;;;;5097701;28;20047;-74
2022/05/13 09:11:10;;;;;;;21.80;3.78;;;17.90;99.60;;;;;;5112169;28;20032;-72
2022/05/13 09:14:13;;;;;;;10.75;3.08;;;17.50;99.90;;;;;;5085662;28;20268;-72
2022/05/13 09:16:47;;;;;;;11.25;4.72;;;17.50;99.40;;;;;;5071289;28;20389;-72
2022/05/13 09:19:33;;;;;;;8.32;3.20;;;17.20;99.90;;;;;;5072008;28;20402;-72
2022/05/13 09:22:01;;;;;;;15.60;4.15;;;17.20;99.90;;;;;;5072625;28;20139;-72
2022/05/13 09:24:27;;;;;;;13.32;3.85;;;17.40;99.90;;;;;;5071036;28;20119;-72
2022/05/13 09:26:53;;;;;;;10.02;3.20;;;17.40;99.90;;;;;;5072311;28;20024;-71
2022/05/13 09:29:19;;;;;;;8.68;2.75;;;17.60;99.30;;;;;;5072558;28;20033;-72
2022/05/13 09:32:00;;;;;;;17.80;4.85;;;17.80;98.80;;;;;;5072782;28;20082;-73
2022/05/13 09:34:26;;;;;;;15.77;4.47;;;17.90;98.20;;;;;;5072769;28;20089;-73
2022/05/13 09:36:52;;;;;;;11.45;3.95;;;17.30;99.20;;;;;;5072334;28;20024;-73
2022/05/13 09:39:22;;;;;;;9.40;3.67;;;17.10;99.90;;;;;;5072416;28;20112;-73
2022/05/13 09:41:49;;;;;;;7.55;3.00;;;17.30;99.90;;;;;;5072871;28;20021;-73
2022/05/13 09:44:23;;;;;;;15.45;3.78;;;16.90;99.90;;;;;;5054867;28;20016;-73
2022/05/13 09:46:51;;;;;;;15.30;3.50;;;17.00;99.90;;;;;;5077805;28;20400;-73
2022/05/13 09:49:36;;;;;;;19.13;4.72;;;17.10;99.90;;;;;;5089458;28;20025;-73
2022/05/13 09:52:15;;;;;;;15.30;3.67;;;17.30;99.90;;;;;;5072268;28;20033;-74
2022/05/13 09:54:47;;;;;;;17.10;3.30;;;17.80;99.90;;;;;;5073013;28;20058;-74
2022/05/13 09:57:19;;;;;;;9.75;3.90;;;17.90;98.80;;;;;;5071333;28;20054;-74
2022/05/13 09:59:55;;;;;;;8.98;3.10;;;18.10;98.60;;;;;;5072703;28;20032;-74
2022/05/13 10:02:40;;;;;;;16.52;4.10;;;18.00;98.00;;;;;;5071514;28;20028;-74
2022/05/13 10:05:20;;;;;;;16.65;4.40;;;17.60;99.10;;;;;;5074349;28;20040;-74
2022/05/13 10:07:58;;;;;;;15.05;4.65;;;17.20;99.90;;;;;;5072358;28;20401;-74
2022/05/13 10:16:06;;;;;;;14.82;4.10;;;17.10;99.90;;;;;;5090065;28;20085;-79
2022/05/13 10:18:40;;;;;;;20.65;4.03;;;17.60;99.90;;;;;;5071941;28;20039;-75
2022/05/13 10:21:24;;;;;;;11.77;4.70;;;17.70;99.00;;;;;;5078247;28;20081;-75
2022/05/13 10:24:11;;;;;;;16.45;4.97;;;17.80;97.40;;;;;;5092318;28;20458;-75
2022/05/13 10:26:42;;;;;;;11.40;4.88;;;17.80;98.20;;;;;;5108503;28;20531;-75
2022/05/13 10:29:37;;;;;;;16.25;4.55;;;18.00;98.00;;;;;;5098983;28;20167;-74
2022/05/13 10:32:30;;;;;;;12.68;4.07;;;17.60;98.30;;;;;;5103372;28;20028;-75
2022/05/13 10:35:00;;;;;;;11.77;3.55;;;17.80;98.90;;;;;;5101349;28;20136;-74
2022/05/13 10:37:44;;;;;;;10.32;3.88;;;18.40;97.10;;;;;;5100180;28;20096;-75
2022/05/13 10:40:18;;;;;;;18.23;3.72;;;18.60;96.80;;;;;;5103774;28;20031;-76
2022/05/13 10:42:59;;;;;;;7.65;3.10;;;18.40;96.10;;;;;;5112004;28;20031;-74
2022/05/13 10:45:27;;;;;;;5.68;2.92;;;18.50;96.30;;;;;;5101360;28;20118;-75
2022/05/13 10:48:19;;;;;;;12.43;3.00;;;18.10;95.80;;;;;;5110398;28;20022;-75
2022/05/13 10:51:11;;;;;;;;;;;18.00;96.10;;;;;;5072984;28;20404;-74
2022/05/13 10:53:52;;;;;;;10.52;3.70;;;18.70;95.70;;;;;;5113864;28;19907;-75
2022/05/13 10:56:30;;;;;;;12.93;3.65;;;18.40;94.90;;;;;;5112020;28;20480;-75
2022/05/13 10:59:19;;;;;;;13.20;3.45;;;18.50;95.70;;;;;;5114939;28;20066;-75
2022/05/13 11:02:11;;;;;;;14.90;3.60;;;18.00;96.60;;;;;;5115757;28;20038;-75
2022/05/13 11:04:48;;;;;;;13.40;4.75;;;18.20;96.40;;;;;;5095016;28;20059;-75
2022/05/13 11:07:38;;;;;;;9.00;4.05;;;18.20;96.40;;;;;;5095102;28;20107;-75
2022/05/13 11:10:21;;;;;;;9.65;5.00;;;17.80;96.80;;;;;;5095239;28;20040;-75
2022/05/13 11:13:05;;;;;;;17.40;4.80;;;17.70;97.50;;;;;;5095080;28;20035;-76
2022/05/13 11:16:11;;;;;;;12.27;4.53;;;17.60;97.70;;;;;;5095254;28;20032;-75
2022/05/13 11:19:03;;;;;;;8.38;3.38;;;17.90;97.60;;;;;;5073215;28;20111;-76
2022/05/13 11:21:36;;;;;;;;;;;18.00;96.60;;;;;;5095587;28;20474;-75
2022/05/13 11:27:08;;;;;;;11.25;2.88;;;18.30;96.50;;;;;;5094799;28;20031;-76
2022/05/13 11:30:06;;;;;;;10.60;2.90;;;18.50;95.40;;;;;;5093557;28;20365;-75
2022/05/13 11:32:42;;;;;;;8.20;2.70;;;18.40;95.10;;;;;;5094812;28;20036;-74
2022/05/13 11:35:31;;;;;;;14.45;3.42;;;18.40;95.50;;;;;;5094286;28;20020;-75
2022/05/13 11:38:03;;;;;;;10.45;2.78;;;18.80;95.90;;;;;;5090654;28;20101;-75
2022/05/13 11:40:40;;;;;;;6.47;2.25;;;18.10;95.90;;;;;;5094893;28;20080;-75
2022/05/13 11:43:18;;;;;;;7.45;2.40;;;18.40;96.00;;;;;;5094536;28;20068;-75
2022/05/13 11:45:56;;;;;;;11.63;2.03;;;18.50;95.30;;;;;;5094742;28;20042;-76
2022/05/13 11:48:31;;;;;;;13.85;2.20;;;19.00;95.30;;;;;;5075457;28;20051;-75
2022/05/13 11:51:21;;;;;;;8.82;2.45;;;19.20;94.80;;;;;;5074315;28;20048;-76
2022/05/13 11:53:48;;;;;;;7.45;2.10;;;19.10;94.00;;;;;;5074306;28;20035;-74
2022/05/13 11:56:25;;;;;;;7.93;1.92;;;18.70;93.90;;;;;;5074213;28;20036;-75
2022/05/13 11:59:30;;;;;;;16.60;2.60;;;18.00;95.00;;;;;;5073985;28;20448;-76
2022/05/13 12:02:25;;;;;;;19.27;4.10;;;18.50;95.20;;;;;;5073717;28;20033;-73
2022/05/13 12:05:23;;;;;;;8.88;1.98;;;18.00;94.80;;;;;;5073883;28;20499;-76
2022/05/13 12:08:07;;;;;;;14.40;2.22;;;18.50;94.60;;;;;;5093961;28;20459;-75
2022/05/13 12:10:59;;;;;;;12.73;1.92;;;19.10;94.40;;;;;;5094097;28;20030;-76
2022/05/13 12:13:29;;;;;;;11.30;2.05;;;19.10;93.70;;;;;;5092906;28;20036;-75
2022/05/13 12:15:58;;;;;;;7.93;1.80;;;19.00;94.20;;;;;;5092325;28;20036;-75
2022/05/13 12:19:02;;;;;;;14.35;2.38;;;18.90;93.90;;;;;;5093652;28;20043;-75
2022/05/13 12:21:38;;;;;;;15.88;2.63;;;19.40;93.20;;;;;;5071745;28;20088;-75
2022/05/13 12:24:10;;;;;;;7.85;2.30;;;19.40;92.60;;;;;;5092184;28;20068;-77
2022/05/13 12:26:50;;;;;;;;;;;20.10;92.10;;;;;;5094497;28;20028;-76
2022/05/13 12:29:22;;;;;;;12.43;2.25;;;19.90;92.20;;;;;;5093640;28;19939;-77
2022/05/13 12:31:53;;;;;;;9.88;2.10;;;19.90;92.20;;;;;;5090407;28;20028;-77
2022/05/13 12:37:40;;;;;;;17.60;2.20;;;20.40;92.10;;;;;;5092817;28;20120;-77
2022/05/13 12:40:21;;;;;;;10.98;2.28;;;20.80;91.20;;;;;;5092827;28;20028;-76
2022/05/13 12:42:47;;;;;;;14.32;2.03;;;20.70;91.00;;;;;;5093544;28;20120;-76
2022/05/13 12:45:20;;;;;;;8.90;2.55;;;20.30;91.50;;;;;;5092290;28;20032;-75
2022/05/13 12:48:04;;;;;;;11.55;1.95;;;20.30;91.30;;;;;;5079567;28;20492;-76
2022/05/13 12:50:50;;;;;;;12.23;1.98;;;20.20;91.60;;;;;;5072446;28;20611;-75
2022/05/13 12:53:27;;;;;;;7.70;1.95;;;20.20;91.70;;;;;;5073463;28;20393;-76
2022/05/13 12:55:56;;;;;;;17.40;2.47;;;20.60;91.20;;;;;;5072709;28;20115;-75
2022/05/13 12:58:24;;;;;;;8.27;1.90;;;20.90;91.10;;;;;;5073274;28;20017;-77
2022/05/13 13:00:52;;;;;;;7.18;2.20;;;20.90;91.20;;;;;;5071317;28;20499;-77
2022/05/13 13:03:19;;;;;;;12.98;2.08;;;21.10;90.60;;;;;;5080167;28;20017;-77
2022/05/13 13:05:57;;;;;;;10.80;2.45;;;21.10;90.10;;;;;;5092396;28;20393;-77
2022/05/13 13:08:31;;;;;;;9.23;1.67;;;21.30;90.20;;;;;;5093142;28;20423;-77
2022/05/13 13:11:08;;;;;;;6.78;1.90;;;21.50;89.90;;;;;;5091804;28;20044;-77
2022/05/13 13:13:52;;;;;;;11.85;1.77;;;21.00;90.20;;;;;;5091834;28;20085;-77
2022/05/13 13:16:34;;;;;;;7.95;2.08;;;20.80;91.00;;;;;;5092664;28;20028;-77
2022/05/13 13:19:13;;;;;;;5.38;1.50;;;21.70;90.00;;;;;;5091755;28;20110;-77
2022/05/13 13:21:41;;;;;;;7.63;1.63;;;21.60;88.60;;;;;;5092819;28;20032;-77
2022/05/13 13:24:20;;;;;;;9.45;1.88;;;22.00;88.20;;;;;;5092856;28;20052;-77